Time;durP1;ratioP1;P1;durP2;ratioP2;P2;SDS_P1;SDS_P2;PMS_P1;PMS_P2;Temp;Humidity;BMP_temperature;BMP_pressure;BME280_temperature;BME280_humidity;BME280_pressure;Samples;Min_cycle;Max_cycle;Signal;HPM_P1;HPM_P2
2021/04/06 00:01:57;;;;;;;;;19.00;17.50;;;;;;;;3724573;37;20194;-53
2021/04/06 00:04:25;;;;;;;;;22.25;19.75;;;;;;;;3724550;37;20193;-52
2021/04/06 00:06:56;;;;;;;;;24.50;19.00;;;;;;;;3725025;37;20207;-51
2021/04/06 00:09:24;;;;;;;;;16.50;15.00;;;;;;;;3725129;37;20204;-51
2021/04/06 00:11:51;;;;;;;;;22.50;20.25;;;;;;;;3725209;37;20207;-51
2021/04/06 00:14:17;;;;;;;;;21.00;20.00;;;;;;;;3725094;37;20206;-52
2021/04/06 00:16:44;;;;;;;;;21.50;18.50;;;;;;;;3725228;38;20187;-52
2021/04/06 00:19:11;;;;;;;;;20.00;18.00;;;;;;;;3725319;37;20212;-52
2021/04/06 00:21:38;;;;;;;;;22.50;20.25;;;;;;;;3725286;38;20213;-51
2021/04/06 00:24:04;;;;;;;;;17.25;14.50;;;;;;;;3725153;38;20208;-53
2021/04/06 00:26:56;;;;;;;;;19.00;16.00;;;;;;;;3725111;38;20181;-52
2021/04/06 00:29:26;;;;;;;;;22.25;19.00;;;;;;;;3725193;37;20196;-52
2021/04/06 00:31:55;;;;;;;;;24.50;21.00;;;;;;;;3725147;37;20185;-50
2021/04/06 00:34:22;;;;;;;;;23.50;20.00;;;;;;;;3725193;37;20194;-50
2021/04/06 00:36:52;;;;;;;;;20.75;19.25;;;;;;;;3725278;38;20177;-51
2021/04/06 00:39:24;;;;;;;;;23.50;20.50;;;;;;;;3725222;37;20184;-51
2021/04/06 00:41:51;;;;;;;;;24.50;20.00;;;;;;;;3725257;37;20155;-52
2021/04/06 00:44:17;;;;;;;;;22.00;18.75;;;;;;;;3725144;38;20158;-52
2021/04/06 00:46:45;;;;;;;;;27.50;19.75;;;;;;;;3725191;38;20187;-52
2021/04/06 00:49:12;;;;;;;;;23.75;22.75;;;;;;;;3725124;37;20151;-52
2021/04/06 00:51:38;;;;;;;;;21.00;19.25;;;;;;;;3725130;38;20172;-52
2021/04/06 00:54:05;;;;;;;;;22.75;20.00;;;;;;;;3725233;37;20161;-53
2021/04/06 00:56:35;;;;;;;;;24.00;20.00;;;;;;;;3725276;38;20136;-50
2021/04/06 00:59:06;;;;;;;;;21.25;20.00;;;;;;;;3725133;37;20149;-50
2021/04/06 01:01:37;;;;;;;;;26.00;21.75;;;;;;;;3725216;37;20143;-50
2021/04/06 01:04:15;;;;;;;;;25.25;17.75;;;;;;;;3725289;38;20155;-52
2021/04/06 01:07:01;;;;;;;;;21.75;18.00;;;;;;;;3725110;37;20160;-52
2021/04/06 01:09:41;;;;;;;;;20.75;20.00;;;;;;;;3725166;37;20134;-51
2021/04/06 01:12:07;;;;;;;;;27.25;24.50;;;;;;;;3725271;38;20145;-51
2021/04/06 01:14:35;;;;;;;;;28.00;23.25;;;;;;;;3725187;38;20141;-51
2021/04/06 01:17:05;;;;;;;;;18.00;17.25;;;;;;;;3725065;38;20150;-51
2021/04/06 01:19:32;;;;;;;;;25.00;20.25;;;;;;;;3725230;37;20126;-53
2021/04/06 01:22:00;;;;;;;;;27.25;22.00;;;;;;;;3724801;37;20144;-52
2021/04/06 01:24:29;;;;;;;;;31.75;23.50;;;;;;;;3725237;38;20110;-51
2021/04/06 01:26:59;;;;;;;;;24.50;23.00;;;;;;;;3725228;38;20121;-52
2021/04/06 01:29:25;;;;;;;;;29.50;27.00;;;;;;;;3725191;38;20124;-51
2021/04/06 01:31:52;;;;;;;;;25.75;23.00;;;;;;;;3725228;37;20107;-52
2021/04/06 01:34:18;;;;;;;;;21.50;18.50;;;;;;;;3725162;38;20087;-51
2021/04/06 01:36:45;;;;;;;;;18.00;16.25;;;;;;;;3725299;37;20088;-53
2021/04/06 01:39:12;;;;;;;;;29.25;28.50;;;;;;;;3725212;38;20118;-52
2021/04/06 01:41:38;;;;;;;;;28.75;24.50;;;;;;;;3725159;38;20118;-52
2021/04/06 01:44:04;;;;;;;;;29.50;23.00;;;;;;;;3725248;38;20116;-52
2021/04/06 01:46:36;;;;;;;;;20.25;18.50;;;;;;;;3725276;38;17989;-53
2021/04/06 01:49:03;;;;;;;;;23.25;21.25;;;;;;;;3725247;37;20078;-52
2021/04/06 01:51:28;;;;;;;;;17.75;16.50;;;;;;;;3725210;37;20076;-52
2021/04/06 01:53:54;;;;;;;;;20.25;19.00;;;;;;;;3725063;38;20087;-51
2021/04/06 01:56:28;;;;;;;;;22.50;21.00;;;;;;;;3725197;37;17959;-52
2021/04/06 01:59:00;;;;;;;;;17.75;17.25;;;;;;;;3725137;38;20079;-52
2021/04/06 02:01:27;;;;;;;;;18.50;17.75;;;;;;;;3725121;37;20068;-51
2021/04/06 02:04:07;;;;;;;;;18.25;16.75;;;;;;;;3725252;38;20078;-51
2021/04/06 02:06:36;;;;;;;;;18.25;17.00;;;;;;;;3725139;38;20081;-51
2021/04/06 02:09:06;;;;;;;;;21.00;17.00;;;;;;;;3725171;37;20066;-51
2021/04/06 02:11:33;;;;;;;;;17.00;15.50;;;;;;;;3725367;38;20048;-52
2021/04/06 02:14:24;;;;;;;;;16.00;15.75;;;;;;;;3725245;37;20060;-52
2021/04/06 02:16:55;;;;;;;;;17.00;14.50;;;;;;;;3725167;38;20047;-53
2021/04/06 02:19:26;;;;;;;;;20.00;15.25;;;;;;;;3725148;37;20029;-52
2021/04/06 02:21:53;;;;;;;;;16.50;15.00;;;;;;;;3724893;38;20041;-52
2021/04/06 02:24:29;;;;;;;;;19.75;18.50;;;;;;;;3725296;37;20019;-52
2021/04/06 02:27:17;;;;;;;;;17.00;16.25;;;;;;;;3725094;38;20006;-52
2021/04/06 02:29:44;;;;;;;;;13.75;13.25;;;;;;;;3725225;37;20050;-52
2021/04/06 02:32:14;;;;;;;;;16.00;12.75;;;;;;;;3725337;38;19997;-52
2021/04/06 02:34:42;;;;;;;;;16.50;15.50;;;;;;;;3725221;38;20033;-52
2021/04/06 02:37:27;;;;;;;;;12.50;11.50;;;;;;;;3725340;38;20016;-54
2021/04/06 02:39:55;;;;;;;;;16.75;15.75;;;;;;;;3725241;38;20028;-52
2021/04/06 02:42:25;;;;;;;;;21.00;17.25;;;;;;;;3725159;38;19998;-52
2021/04/06 02:44:55;;;;;;;;;15.00;14.50;;;;;;;;3725378;37;20000;-52
2021/04/06 02:47:22;;;;;;;;;16.75;13.00;;;;;;;;3725212;37;19992;-52
2021/04/06 02:49:48;;;;;;;;;12.25;11.25;;;;;;;;3725277;37;20090;-53
2021/04/06 02:52:15;;;;;;;;;13.25;12.50;;;;;;;;3725253;38;19978;-52
2021/04/06 02:54:40;;;;;;;;;16.00;12.75;;;;;;;;3725199;37;17873;-52
2021/04/06 02:57:38;;;;;;;;;19.25;16.00;;;;;;;;3725226;37;19977;-53
2021/04/06 03:00:04;;;;;;;;;16.00;13.25;;;;;;;;3725407;37;17902;-52
2021/04/06 03:02:37;;;;;;;;;18.50;16.75;;;;;;;;3725341;37;19966;-52
2021/04/06 03:05:03;;;;;;;;;20.75;17.75;;;;;;;;3725323;38;20004;-52
2021/04/06 03:07:29;;;;;;;;;20.75;18.75;;;;;;;;3725111;38;19995;-53
2021/04/06 03:09:58;;;;;;;;;17.50;16.50;;;;;;;;3725232;37;19999;-52
2021/04/06 03:12:28;;;;;;;;;15.50;14.50;;;;;;;;3725266;37;17885;-52
2021/04/06 03:14:54;;;;;;;;;17.00;14.25;;;;;;;;3725187;37;19997;-52
2021/04/06 03:17:20;;;;;;;;;15.50;14.50;;;;;;;;3725214;38;19964;-52
2021/04/06 03:19:54;;;;;;;;;17.25;13.50;;;;;;;;3725121;38;20060;-51
2021/04/06 03:22:20;;;;;;;;;16.75;15.00;;;;;;;;3725358;37;17849;-52
2021/04/06 03:24:52;;;;;;;;;21.00;19.00;;;;;;;;3725295;37;19950;-53
2021/04/06 03:27:29;;;;;;;;;18.00;14.75;;;;;;;;3725112;37;19942;-53
2021/04/06 03:29:58;;;;;;;;;16.00;16.00;;;;;;;;3725463;38;19970;-53
2021/04/06 03:32:24;;;;;;;;;16.00;14.25;;;;;;;;3725332;38;19952;-52
2021/04/06 03:34:51;;;;;;;;;20.50;20.50;;;;;;;;3725300;37;19940;-52
2021/04/06 03:37:17;;;;;;;;;20.00;15.25;;;;;;;;3725092;38;19953;-52
2021/04/06 03:39:42;;;;;;;;;15.50;15.00;;;;;;;;3724995;37;19937;-53
2021/04/06 03:42:08;;;;;;;;;19.75;16.50;;;;;;;;3725146;38;19931;-52
2021/04/06 03:44:34;;;;;;;;;16.25;14.00;;;;;;;;3725246;37;17825;-51
2021/04/06 03:47:01;;;;;;;;;21.50;17.75;;;;;;;;3725338;37;17857;-52
2021/04/06 03:49:28;;;;;;;;;21.00;17.25;;;;;;;;3725117;37;19937;-52
2021/04/06 03:52:01;;;;;;;;;13.50;12.75;;;;;;;;3725118;37;19938;-53
2021/04/06 03:54:35;;;;;;;;;20.25;17.50;;;;;;;;3725234;38;19927;-52
2021/04/06 03:57:20;;;;;;;;;24.75;21.75;;;;;;;;3725182;37;19922;-52
2021/04/06 03:59:45;;;;;;;;;20.25;18.25;;;;;;;;3725282;38;19904;-52
2021/04/06 04:02:11;;;;;;;;;22.75;19.25;;;;;;;;3725366;38;19926;-54
2021/04/06 04:04:38;;;;;;;;;19.25;16.75;;;;;;;;3725437;38;17811;-53
2021/04/06 04:07:06;;;;;;;;;22.50;20.25;;;;;;;;3725303;38;17797;-53
2021/04/06 04:09:32;;;;;;;;;25.25;18.00;;;;;;;;3725289;38;19907;-52
2021/04/06 04:11:58;;;;;;;;;20.25;18.25;;;;;;;;3725382;37;19909;-54
2021/04/06 04:14:23;;;;;;;;;20.25;19.75;;;;;;;;3725323;38;17782;-52
2021/04/06 04:16:49;;;;;;;;;22.25;15.50;;;;;;;;3725447;37;17777;-51
2021/04/06 04:19:15;;;;;;;;;22.00;21.50;;;;;;;;3725301;37;17794;-52
2021/04/06 04:21:41;;;;;;;;;24.00;23.25;;;;;;;;3725308;37;17759;-52
2021/04/06 04:24:07;;;;;;;;;28.75;26.50;;;;;;;;3725207;37;17796;-52
2021/04/06 04:26:33;;;;;;;;;39.00;30.50;;;;;;;;3725462;37;17788;-53
2021/04/06 04:28:58;;;;;;;;;38.50;34.25;;;;;;;;3725217;38;19941;-51
2021/04/06 04:31:26;;;;;;;;;34.50;30.75;;;;;;;;3725413;38;17781;-52
2021/04/06 04:33:51;;;;;;;;;41.75;33.00;;;;;;;;3725158;37;17788;-52
2021/04/06 04:36:17;;;;;;;;;30.75;26.75;;;;;;;;3725343;38;19926;-51
2021/04/06 04:38:43;;;;;;;;;42.50;32.75;;;;;;;;3725321;38;17761;-53
2021/04/06 04:41:09;;;;;;;;;34.75;28.00;;;;;;;;3724946;37;17758;-51
2021/04/06 04:43:35;;;;;;;;;20.00;20.00;;;;;;;;3725223;37;19899;-51
2021/04/06 04:46:01;;;;;;;;;23.50;22.75;;;;;;;;3725318;37;17729;-52
2021/04/06 04:48:30;;;;;;;;;22.50;20.50;;;;;;;;3725287;38;17733;-52
2021/04/06 04:50:56;;;;;;;;;37.25;34.25;;;;;;;;3725331;38;19877;-53
2021/04/06 04:53:22;;;;;;;;;29.25;22.75;;;;;;;;3725263;37;17750;-52
2021/04/06 04:55:48;;;;;;;;;29.25;21.50;;;;;;;;3725373;37;17729;-52
2021/04/06 04:58:13;;;;;;;;;23.75;20.75;;;;;;;;3725520;38;17751;-52
2021/04/06 05:00:39;;;;;;;;;32.25;28.00;;;;;;;;3725275;37;17711;-52
2021/04/06 05:03:05;;;;;;;;;49.50;39.00;;;;;;;;3725311;38;17748;-51
2021/04/06 05:05:31;;;;;;;;;33.75;31.50;;;;;;;;3725414;37;17705;-52
2021/04/06 05:07:56;;;;;;;;;26.25;22.25;;;;;;;;3725181;38;17714;-52
2021/04/06 05:10:22;;;;;;;;;31.00;26.00;;;;;;;;3725339;38;17705;-52
2021/04/06 05:12:48;;;;;;;;;30.00;25.75;;;;;;;;3725224;38;17709;-52
2021/04/06 05:15:15;;;;;;;;;23.00;19.75;;;;;;;;3725179;37;17691;-51
2021/04/06 05:17:40;;;;;;;;;27.00;24.00;;;;;;;;3725390;38;19835;-52
2021/04/06 05:20:07;;;;;;;;;27.25;22.75;;;;;;;;3725293;37;19822;-50
2021/04/06 05:22:33;;;;;;;;;34.75;28.50;;;;;;;;3725197;37;17701;-52
2021/04/06 05:24:59;;;;;;;;;25.50;23.50;;;;;;;;3725257;37;19774;-51
2021/04/06 05:27:25;;;;;;;;;36.00;25.50;;;;;;;;3725366;37;19796;-52
2021/04/06 05:29:51;;;;;;;;;29.75;26.75;;;;;;;;3725324;38;17696;-53
2021/04/06 05:32:17;;;;;;;;;25.00;20.25;;;;;;;;3725383;37;17710;-52
2021/04/06 05:34:42;;;;;;;;;24.75;23.75;;;;;;;;3725343;38;17689;-52
2021/04/06 05:37:08;;;;;;;;;26.00;23.25;;;;;;;;3725413;38;17663;-52
2021/04/06 05:39:34;;;;;;;;;28.50;26.00;;;;;;;;3725474;37;17662;-52
2021/04/06 05:42:00;;;;;;;;;26.00;22.75;;;;;;;;3725422;37;17684;-52
2021/04/06 05:44:26;;;;;;;;;29.25;26.25;;;;;;;;3725305;38;19782;-53
2021/04/06 05:46:54;;;;;;;;;31.50;26.00;;;;;;;;3725419;38;19805;-53
2021/04/06 05:49:25;;;;;;;;;28.00;24.00;;;;;;;;3725499;38;19775;-54
2021/04/06 05:51:53;;;;;;;;;32.50;29.00;;;;;;;;3725153;38;19793;-53
2021/04/06 05:54:19;;;;;;;;;32.75;29.75;;;;;;;;3725564;38;19769;-53
2021/04/06 05:56:45;;;;;;;;;21.50;20.75;;;;;;;;3725419;38;19802;-55
2021/04/06 05:59:11;;;;;;;;;26.25;24.25;;;;;;;;3725368;38;17643;-56
2021/04/06 06:01:38;;;;;;;;;26.50;25.50;;;;;;;;3725108;37;19821;-54
2021/04/06 06:04:04;;;;;;;;;36.50;33.00;;;;;;;;3724454;37;19755;-53
2021/04/06 06:06:30;;;;;;;;;22.25;21.00;;;;;;;;3725420;37;19755;-53
2021/04/06 06:09:00;;;;;;;;;28.75;26.75;;;;;;;;3725377;37;19764;-55
2021/04/06 06:11:26;;;;;;;;;27.00;27.00;;;;;;;;3725549;37;17645;-53
2021/04/06 06:13:52;;;;;;;;;33.25;29.75;;;;;;;;3725484;37;19725;-57
2021/04/06 06:16:22;;;;;;;;;29.75;28.00;;;;;;;;3725255;38;19740;-54
2021/04/06 06:19:10;;;;;;;;;34.25;31.25;;;;;;;;3725366;37;17612;-56
2021/04/06 06:21:42;;;;;;;;;26.00;26.00;;;;;;;;3725274;37;19740;-54
2021/04/06 06:24:09;;;;;;;;;27.75;26.75;;;;;;;;3725304;38;19716;-54
2021/04/06 06:26:39;;;;;;;;;21.00;20.50;;;;;;;;3725176;37;19747;-54
2021/04/06 06:29:12;;;;;;;;;41.25;36.00;;;;;;;;3725435;37;19731;-55
2021/04/06 06:31:46;;;;;;;;;31.25;29.50;;;;;;;;3725373;38;19768;-54
2021/04/06 06:34:24;;;;;;;;;29.75;26.75;;;;;;;;3725440;37;19723;-56
2021/04/06 06:37:04;;;;;;;;;29.50;29.00;;;;;;;;3725316;38;19709;-55
2021/04/06 06:39:30;;;;;;;;;32.25;30.25;;;;;;;;3724965;38;19695;-54
2021/04/06 06:42:04;;;;;;;;;31.75;27.25;;;;;;;;3725267;37;19726;-54
2021/04/06 06:44:30;;;;;;;;;31.25;29.00;;;;;;;;3725392;38;17602;-56
2021/04/06 06:47:10;;;;;;;;;26.50;25.75;;;;;;;;3725282;38;19714;-55
2021/04/06 06:49:40;;;;;;;;;32.75;27.75;;;;;;;;3725383;37;19702;-57
2021/04/06 06:52:07;;;;;;;;;27.00;26.00;;;;;;;;3725359;38;19693;-56
2021/04/06 06:54:34;;;;;;;;;28.00;23.75;;;;;;;;3725316;38;19674;-55
2021/04/06 06:57:07;;;;;;;;;28.50;27.25;;;;;;;;3725357;37;19678;-55
2021/04/06 06:59:37;;;;;;;;;28.25;27.25;;;;;;;;3724846;37;19701;-56
2021/04/06 07:02:20;;;;;;;;;34.00;33.50;;;;;;;;3725117;38;19677;-56
2021/04/06 07:04:46;;;;;;;;;27.25;26.50;;;;;;;;3725101;37;19720;-55
2021/04/06 07:07:12;;;;;;;;;33.75;28.00;;;;;;;;3725090;38;19770;-56
2021/04/06 07:09:39;;;;;;;;;31.25;22.50;;;;;;;;3725261;38;17577;-57
2021/04/06 07:12:06;;;;;;;;;33.25;28.25;;;;;;;;3725424;37;17547;-55
2021/04/06 07:14:32;;;;;;;;;29.25;22.75;;;;;;;;3725090;38;19654;-55
2021/04/06 07:17:03;;;;;;;;;25.50;24.00;;;;;;;;3724661;38;19664;-52
2021/04/06 07:19:32;;;;;;;;;32.25;30.75;;;;;;;;3725304;38;19672;-54
2021/04/06 07:22:00;;;;;;;;;27.00;26.00;;;;;;;;3725471;37;19672;-55
2021/04/06 07:24:27;;;;;;;;;25.75;23.75;;;;;;;;3725578;37;19636;-54
2021/04/06 07:26:53;;;;;;;;;29.00;28.00;;;;;;;;3725234;37;19633;-55
2021/04/06 07:29:22;;;;;;;;;31.75;31.00;;;;;;;;3725381;37;19661;-55
2021/04/06 07:31:48;;;;;;;;;27.75;26.25;;;;;;;;3725567;38;17526;-53
2021/04/06 07:34:16;;;;;;;;;26.00;24.25;;;;;;;;3725503;37;19659;-54
2021/04/06 07:36:43;;;;;;;;;25.00;22.25;;;;;;;;3725485;38;19644;-53
2021/04/06 07:39:10;;;;;;;;;27.00;24.50;;;;;;;;3725424;37;19625;-54
2021/04/06 07:41:40;;;;;;;;;31.00;29.00;;;;;;;;3725318;38;19621;-53
2021/04/06 07:44:07;;;;;;;;;26.50;25.75;;;;;;;;3725323;38;19626;-54
2021/04/06 07:46:43;;;;;;;;;35.00;31.50;;;;;;;;3725284;38;19630;-56
2021/04/06 07:49:31;;;;;;;;;36.25;32.75;;;;;;;;3725479;38;19624;-54
2021/04/06 07:52:00;;;;;;;;;27.50;24.50;;;;;;;;3725417;37;19636;-54
2021/04/06 07:54:51;;;;;;;;;29.25;26.75;;;;;;;;3725350;38;19610;-53
2021/04/06 07:57:17;;;;;;;;;26.25;24.50;;;;;;;;3725276;38;19626;-54
2021/04/06 07:59:48;;;;;;;;;33.25;30.50;;;;;;;;3725233;38;20625;-53
2021/04/06 08:02:25;;;;;;;;;30.25;29.25;;;;;;;;3725325;37;19607;-55
2021/04/06 08:04:52;;;;;;;;;28.25;25.75;;;;;;;;3725391;37;19598;-53
2021/04/06 08:07:25;;;;;;;;;29.25;27.25;;;;;;;;3725317;37;19604;-53
2021/04/06 08:09:55;;;;;;;;;27.75;25.00;;;;;;;;3725401;38;20582;-55
2021/04/06 08:12:22;;;;;;;;;24.75;22.50;;;;;;;;3725393;38;19600;-53
2021/04/06 08:14:56;;;;;;;;;25.50;24.00;;;;;;;;3725413;37;20596;-54
2021/04/06 08:17:40;;;;;;;;;26.75;24.75;;;;;;;;3725319;38;20591;-55
2021/04/06 08:20:20;;;;;;;;;29.00;23.75;;;;;;;;3725355;37;20578;-56
2021/04/06 08:22:50;;;;;;;;;30.50;29.50;;;;;;;;3725425;38;20561;-54
2021/04/06 08:25:36;;;;;;;;;22.50;21.75;;;;;;;;3725152;38;20587;-55
2021/04/06 08:28:04;;;;;;;;;28.25;27.25;;;;;;;;3725372;38;20556;-53
2021/04/06 08:30:34;;;;;;;;;25.50;24.75;;;;;;;;3726186;38;20579;-53
2021/04/06 08:33:19;;;;;;;;;28.00;25.25;;;;;;;;3725762;37;20566;-54
2021/04/06 08:36:05;;;;;;;;;28.75;25.50;;;;;;;;3725398;37;20577;-53
2021/04/06 08:38:48;;;;;;;;;24.75;21.50;;;;;;;;3725393;38;20553;-53
2021/04/06 08:41:36;;;;;;;;;22.50;22.25;;;;;;;;3725460;38;20539;-53
2021/04/06 08:44:05;;;;;;;;;19.00;17.00;;;;;;;;3718856;38;20550;-56
2021/04/06 08:46:48;;;;;;;;;25.00;23.25;;;;;;;;3719978;37;20522;-55
2021/04/06 08:49:18;;;;;;;;;22.00;21.75;;;;;;;;3724785;38;20547;-53
2021/04/06 08:51:45;;;;;;;;;22.50;22.00;;;;;;;;3725136;37;20540;-55
2021/04/06 08:54:21;;;;;;;;;21.50;21.25;;;;;;;;3725177;37;20519;-53
2021/04/06 08:56:53;;;;;;;;;21.25;18.50;;;;;;;;3725076;38;20543;-54
2021/04/06 08:59:35;;;;;;;;;27.00;24.25;;;;;;;;3724683;38;20527;-55
2021/04/06 09:02:05;;;;;;;;;21.00;19.00;;;;;;;;3725423;38;20506;-54
2021/04/06 09:04:32;;;;;;;;;25.50;23.00;;;;;;;;3725330;37;20505;-54
2021/04/06 09:06:58;;;;;;;;;24.75;24.25;;;;;;;;3725048;38;20511;-55
2021/04/06 09:09:26;;;;;;;;;27.50;25.75;;;;;;;;3725375;37;20506;-55
2021/04/06 09:11:52;;;;;;;;;25.50;22.50;;;;;;;;3725223;37;20528;-54
2021/04/06 09:14:21;;;;;;;;;27.00;22.25;;;;;;;;3725491;38;20526;-55
2021/04/06 09:16:49;;;;;;;;;19.75;17.75;;;;;;;;3725285;38;20525;-54
2021/04/06 09:19:16;;;;;;;;;31.75;30.00;;;;;;;;3725471;37;20509;-54
2021/04/06 09:21:43;;;;;;;;;26.50;26.25;;;;;;;;3725477;38;20495;-54
2021/04/06 09:24:10;;;;;;;;;22.25;21.75;;;;;;;;3725316;37;19496;-54
2021/04/06 09:26:36;;;;;;;;;29.50;25.75;;;;;;;;3725311;38;20506;-54
2021/04/06 09:29:28;;;;;;;;;24.25;23.00;;;;;;;;3725334;38;20511;-53
2021/04/06 09:31:55;;;;;;;;;21.25;20.25;;;;;;;;3725571;37;20476;-53
2021/04/06 09:34:23;;;;;;;;;25.25;21.00;;;;;;;;3725433;37;20477;-52
2021/04/06 09:37:05;;;;;;;;;24.50;22.50;;;;;;;;3724814;37;20461;-54
2021/04/06 09:39:32;;;;;;;;;20.75;19.00;;;;;;;;3725118;38;20471;-54
2021/04/06 09:41:58;;;;;;;;;15.00;13.75;;;;;;;;3725473;38;20451;-52
2021/04/06 09:44:29;;;;;;;;;20.50;18.25;;;;;;;;3725081;38;20451;-52
2021/04/06 09:46:56;;;;;;;;;19.50;17.50;;;;;;;;3725277;38;20455;-53
2021/04/06 09:49:22;;;;;;;;;16.50;16.50;;;;;;;;3725461;37;20462;-54
2021/04/06 09:51:50;;;;;;;;;19.75;17.00;;;;;;;;3725440;38;20458;-55
2021/04/06 09:54:24;;;;;;;;;14.50;12.25;;;;;;;;3725273;38;20465;-52
2021/04/06 09:56:50;;;;;;;;;16.75;15.00;;;;;;;;3725308;37;20465;-53
2021/04/06 09:59:16;;;;;;;;;15.50;15.50;;;;;;;;3725366;37;20437;-55
2021/04/06 10:01:49;;;;;;;;;13.00;12.25;;;;;;;;3725476;38;20413;-52
2021/04/06 10:04:16;;;;;;;;;17.50;14.50;;;;;;;;3725388;38;20416;-52
2021/04/06 10:06:44;;;;;;;;;13.50;13.50;;;;;;;;3724935;37;20447;-53
2021/04/06 10:09:23;;;;;;;;;15.75;14.75;;;;;;;;3718189;37;70171;-53
2021/04/06 10:11:49;;;;;;;;;17.25;16.25;;;;;;;;3725388;37;20428;-52
2021/04/06 10:14:15;;;;;;;;;18.25;18.25;;;;;;;;3725388;37;20417;-53
2021/04/06 10:16:42;;;;;;;;;20.50;18.50;;;;;;;;3725130;38;20468;-52
2021/04/06 10:19:18;;;;;;;;;15.25;15.25;;;;;;;;3725526;38;18322;-53
2021/04/06 10:21:44;;;;;;;;;19.50;18.75;;;;;;;;3725061;38;20662;-53
2021/04/06 10:24:14;;;;;;;;;16.00;15.00;;;;;;;;3725283;38;20404;-51
2021/04/06 10:26:40;;;;;;;;;15.75;15.75;;;;;;;;3724799;37;18310;-52
2021/04/06 10:29:08;;;;;;;;;19.75;17.00;;;;;;;;3724715;37;20429;-52
2021/04/06 10:31:47;;;;;;;;;17.00;15.00;;;;;;;;3724299;37;18293;-52
2021/04/06 10:34:12;;;;;;;;;15.00;15.00;;;;;;;;3724813;37;20416;-56
2021/04/06 10:36:38;;;;;;;;;15.75;15.00;;;;;;;;3725661;38;20429;-53
2021/04/06 10:39:05;;;;;;;;;18.75;18.25;;;;;;;;3725651;37;18272;-53
2021/04/06 10:41:30;;;;;;;;;15.00;14.00;;;;;;;;3725490;37;18280;-54
2021/04/06 10:43:56;;;;;;;;;13.75;12.25;;;;;;;;3725601;38;20384;-53
2021/04/06 10:46:23;;;;;;;;;14.75;14.00;;;;;;;;3725699;37;18280;-53
2021/04/06 10:48:51;;;;;;;;;13.00;12.00;;;;;;;;3725382;38;20349;-55
2021/04/06 10:51:19;;;;;;;;;14.00;14.00;;;;;;;;3725465;38;20396;-55
2021/04/06 10:53:45;;;;;;;;;14.50;14.50;;;;;;;;3725418;37;20387;-53
2021/04/06 10:56:13;;;;;;;;;17.25;16.50;;;;;;;;3725403;38;20403;-54
2021/04/06 10:58:43;;;;;;;;;12.25;11.00;;;;;;;;3725317;37;20376;-53
2021/04/06 11:01:10;;;;;;;;;15.00;15.00;;;;;;;;3725377;38;20353;-53
2021/04/06 11:03:44;;;;;;;;;16.00;13.00;;;;;;;;3725498;37;20356;-54
2021/04/06 11:06:16;;;;;;;;;14.50;13.50;;;;;;;;3725311;38;20349;-54
2021/04/06 11:08:45;;;;;;;;;16.50;13.75;;;;;;;;3725451;37;20386;-54
2021/04/06 11:11:18;;;;;;;;;19.75;17.25;;;;;;;;3725435;37;20386;-53
2021/04/06 11:13:45;;;;;;;;;14.00;13.00;;;;;;;;3725321;38;20391;-53
2021/04/06 11:16:11;;;;;;;;;13.00;12.00;;;;;;;;3725415;38;20345;-53
2021/04/06 11:18:36;;;;;;;;;14.25;13.50;;;;;;;;3724789;37;20354;-53
2021/04/06 11:21:04;;;;;;;;;16.00;15.25;;;;;;;;3725403;37;20346;-54
2021/04/06 11:23:30;;;;;;;;;15.50;14.50;;;;;;;;3725562;37;20344;-52
2021/04/06 11:25:56;;;;;;;;;19.00;16.25;;;;;;;;3725501;37;20339;-52
2021/04/06 11:28:22;;;;;;;;;15.25;13.50;;;;;;;;3725494;37;18222;-54
2021/04/06 11:30:48;;;;;;;;;12.25;11.50;;;;;;;;3725401;38;18231;-53
2021/04/06 11:33:13;;;;;;;;;19.75;17.75;;;;;;;;3725632;38;18198;-52
2021/04/06 11:35:39;;;;;;;;;12.50;12.00;;;;;;;;3725386;37;18206;-54
2021/04/06 11:38:05;;;;;;;;;11.50;11.50;;;;;;;;3725386;38;18203;-55
2021/04/06 11:40:31;;;;;;;;;12.25;12.25;;;;;;;;3725484;38;20356;-55
2021/04/06 11:42:58;;;;;;;;;12.75;12.00;;;;;;;;3725498;37;18183;-53
2021/04/06 11:45:24;;;;;;;;;10.25;10.25;;;;;;;;3725313;38;20321;-52
2021/04/06 11:47:51;;;;;;;;;10.25;9.25;;;;;;;;3725374;37;18200;-53
2021/04/06 11:50:17;;;;;;;;;7.00;7.00;;;;;;;;3725301;38;20310;-56
2021/04/06 11:52:43;;;;;;;;;8.25;8.25;;;;;;;;3725378;37;20271;-54
2021/04/06 11:55:09;;;;;;;;;6.75;6.00;;;;;;;;3725341;38;20265;-53
2021/04/06 11:57:35;;;;;;;;;19.50;17.50;;;;;;;;3725470;38;18200;-57
2021/04/06 12:00:01;;;;;;;;;13.50;13.25;;;;;;;;3725264;37;20337;-53
2021/04/06 12:02:26;;;;;;;;;10.75;9.75;;;;;;;;3725533;37;18169;-55
2021/04/06 12:04:52;;;;;;;;;10.50;9.75;;;;;;;;3725445;37;18178;-52
2021/04/06 12:07:18;;;;;;;;;11.00;10.25;;;;;;;;3725376;37;18164;-53
2021/04/06 12:09:44;;;;;;;;;11.50;10.25;;;;;;;;3725627;38;18162;-54
2021/04/06 12:12:10;;;;;;;;;11.50;11.50;;;;;;;;3725490;38;18160;-55
2021/04/06 12:14:36;;;;;;;;;9.50;9.00;;;;;;;;3725589;38;18149;-55
2021/04/06 12:17:06;;;;;;;;;10.25;9.00;;;;;;;;3724942;37;18142;-54
2021/04/06 12:19:32;;;;;;;;;8.75;8.50;;;;;;;;3724702;38;20259;-53
2021/04/06 12:21:57;;;;;;;;;7.50;7.25;;;;;;;;3724735;37;20204;-54
2021/04/06 12:24:29;;;;;;;;;9.00;8.00;;;;;;;;3725163;38;18287;-52
2021/04/06 12:26:55;;;;;;;;;12.50;12.50;;;;;;;;3725086;37;18151;-54
2021/04/06 12:29:21;;;;;;;;;14.50;12.00;;;;;;;;3724891;37;20257;-53
2021/04/06 12:31:47;;;;;;;;;12.50;10.25;;;;;;;;3725343;37;20246;-54
2021/04/06 12:34:13;;;;;;;;;16.75;14.75;;;;;;;;3725448;37;20226;-53
2021/04/06 12:36:39;;;;;;;;;14.75;13.50;;;;;;;;3725357;37;18129;-53
2021/04/06 12:39:05;;;;;;;;;9.00;9.00;;;;;;;;3725621;37;20231;-52
2021/04/06 12:41:31;;;;;;;;;12.75;11.75;;;;;;;;3725594;37;18128;-54
2021/04/06 12:44:00;;;;;;;;;14.50;13.00;;;;;;;;3725431;37;20237;-53
2021/04/06 12:46:25;;;;;;;;;13.50;13.50;;;;;;;;3725549;38;20231;-53
2021/04/06 12:48:51;;;;;;;;;11.00;11.00;;;;;;;;3725418;37;20225;-53
2021/04/06 12:51:17;;;;;;;;;15.25;14.25;;;;;;;;3725667;37;18100;-53
2021/04/06 12:53:43;;;;;;;;;13.00;11.00;;;;;;;;3725659;37;18117;-54
2021/04/06 12:56:12;;;;;;;;;11.75;10.75;;;;;;;;3725482;38;18096;-52
2021/04/06 12:58:38;;;;;;;;;6.25;6.25;;;;;;;;3725536;37;18105;-55
2021/04/06 13:01:04;;;;;;;;;14.25;12.75;;;;;;;;3725281;38;20164;-53
2021/04/06 13:03:30;;;;;;;;;12.00;10.00;;;;;;;;3725474;37;20234;-55
2021/04/06 13:05:56;;;;;;;;;14.25;13.25;;;;;;;;3725529;38;18107;-54
2021/04/06 13:08:21;;;;;;;;;13.25;12.75;;;;;;;;3725379;38;18091;-54
2021/04/06 13:10:49;;;;;;;;;10.00;9.50;;;;;;;;3725366;37;18094;-57
2021/04/06 13:13:15;;;;;;;;;12.25;11.25;;;;;;;;3725411;38;18080;-56
2021/04/06 13:15:42;;;;;;;;;15.00;14.50;;;;;;;;3725416;37;20206;-52
2021/04/06 13:18:08;;;;;;;;;12.50;12.00;;;;;;;;3725397;37;18057;-55
2021/04/06 13:20:34;;;;;;;;;11.50;11.50;;;;;;;;3725363;37;20188;-54
2021/04/06 13:23:00;;;;;;;;;11.25;10.75;;;;;;;;3725335;38;20172;-54
2021/04/06 13:25:25;;;;;;;;;11.50;11.00;;;;;;;;3725425;37;20156;-52
2021/04/06 13:27:52;;;;;;;;;13.00;11.00;;;;;;;;3725486;37;18061;-52
2021/04/06 13:30:19;;;;;;;;;10.50;10.00;;;;;;;;3725451;37;18146;-52
2021/04/06 13:32:45;;;;;;;;;13.50;11.75;;;;;;;;3725463;38;20148;-53
2021/04/06 13:35:11;;;;;;;;;15.25;14.25;;;;;;;;3725419;37;20165;-56
2021/04/06 13:37:38;;;;;;;;;9.75;9.75;;;;;;;;3725506;38;20157;-53
2021/04/06 13:40:05;;;;;;;;;12.25;12.25;;;;;;;;3725420;38;20140;-53
2021/04/06 13:42:35;;;;;;;;;13.25;12.00;;;;;;;;3725492;37;20170;-54
2021/04/06 13:45:05;;;;;;;;;18.25;15.75;;;;;;;;3725402;37;20124;-54
2021/04/06 13:47:31;;;;;;;;;10.75;10.75;;;;;;;;3725450;37;20144;-53
2021/04/06 13:49:57;;;;;;;;;19.00;16.25;;;;;;;;3725321;37;20142;-52
2021/04/06 13:52:22;;;;;;;;;13.50;13.50;;;;;;;;3725543;38;18028;-53
2021/04/06 13:54:48;;;;;;;;;11.00;11.00;;;;;;;;3725439;38;18020;-53
2021/04/06 13:57:14;;;;;;;;;12.75;11.50;;;;;;;;3725525;37;18018;-53
2021/04/06 13:59:40;;;;;;;;;14.00;13.25;;;;;;;;3725372;37;18020;-52
2021/04/06 14:02:05;;;;;;;;;17.25;14.75;;;;;;;;3725460;37;18005;-52
2021/04/06 14:04:31;;;;;;;;;13.75;13.00;;;;;;;;3725468;37;18008;-52
2021/04/06 14:06:57;;;;;;;;;12.00;10.25;;;;;;;;3725363;37;18009;-52
2021/04/06 14:09:23;;;;;;;;;12.50;11.50;;;;;;;;3725501;37;17996;-51
2021/04/06 14:11:49;;;;;;;;;14.75;13.50;;;;;;;;3725416;38;17975;-52
2021/04/06 14:14:14;;;;;;;;;12.00;11.25;;;;;;;;3725433;37;20236;-52
2021/04/06 14:16:40;;;;;;;;;13.25;12.00;;;;;;;;3725508;37;17993;-53
2021/04/06 14:19:06;;;;;;;;;15.75;12.25;;;;;;;;3725331;38;17977;-53
2021/04/06 14:21:32;;;;;;;;;17.00;16.50;;;;;;;;3725400;37;17998;-53
2021/04/06 14:23:58;;;;;;;;;16.25;14.00;;;;;;;;3725099;38;17973;-53
2021/04/06 14:26:25;;;;;;;;;13.75;13.00;;;;;;;;3725506;37;17955;-56
2021/04/06 14:28:52;;;;;;;;;12.25;12.00;;;;;;;;3725470;38;20089;-52